sensor_id;sensor_type;location;lat;lon;timestamp;P1;durP1;ratioP1;P2;durP2;ratioP2
13847;SDS011;6994;49.752;6.094;2023-04-25T00:00:39;12.25;;;9.98;;
13847;SDS011;6994;49.752;6.094;2023-04-25T00:03:07;16.27;;;10.95;;
13847;SDS011;6994;49.752;6.094;2023-04-25T00:05:35;12.88;;;10.57;;
13847;SDS011;6994;49.752;6.094;2023-04-25T00:08:03;13.32;;;10.40;;
13847;SDS011;6994;49.752;6.094;2023-04-25T00:10:30;13.52;;;11.68;;
13847;SDS011;6994;49.752;6.094;2023-04-25T00:12:57;14.75;;;10.73;;
13847;SDS011;6994;49.752;6.094;2023-04-25T00:15:24;14.52;;;10.93;;
13847;SDS011;6994;49.752;6.094;2023-04-25T00:17:51;15.98;;;14.15;;
13847;SDS011;6994;49.752;6.094;2023-04-25T00:20:19;12.98;;;10.98;;
13847;SDS011;6994;49.752;6.094;2023-04-25T00:22:46;15.55;;;10.63;;
13847;SDS011;6994;49.752;6.094;2023-04-25T00:25:14;13.27;;;9.27;;
13847;SDS011;6994;49.752;6.094;2023-04-25T00:27:42;12.25;;;8.70;;
13847;SDS011;6994;49.752;6.094;2023-04-25T00:30:10;10.80;;;8.75;;
13847;SDS011;6994;49.752;6.094;2023-04-25T00:32:37;11.43;;;8.77;;
13847;SDS011;6994;49.752;6.094;2023-04-25T00:35:04;9.13;;;7.82;;
13847;SDS011;6994;49.752;6.094;2023-04-25T00:37:32;8.75;;;7.55;;
13847;SDS011;6994;49.752;6.094;2023-04-25T00:39:59;9.38;;;8.13;;
13847;SDS011;6994;49.752;6.094;2023-04-25T00:42:26;11.85;;;8.65;;
13847;SDS011;6994;49.752;6.094;2023-04-25T00:44:53;9.73;;;8.15;;
13847;SDS011;6994;49.752;6.094;2023-04-25T00:47:20;9.95;;;7.70;;
13847;SDS011;6994;49.752;6.094;2023-04-25T00:49:48;11.50;;;7.82;;
13847;SDS011;6994;49.752;6.094;2023-04-25T00:52:15;11.77;;;7.50;;
13847;SDS011;6994;49.752;6.094;2023-04-25T00:54:43;8.07;;;7.25;;
13847;SDS011;6994;49.752;6.094;2023-04-25T00:57:11;10.18;;;7.40;;
13847;SDS011;6994;49.752;6.094;2023-04-25T00:59:40;9.48;;;8.05;;
13847;SDS011;6994;49.752;6.094;2023-04-25T01:02:06;10.55;;;7.40;;
13847;SDS011;6994;49.752;6.094;2023-04-25T01:04:33;8.48;;;7.18;;
13847;SDS011;6994;49.752;6.094;2023-04-25T01:07:00;11.48;;;10.27;;
13847;SDS011;6994;49.752;6.094;2023-04-25T01:09:28;10.63;;;8.32;;
13847;SDS011;6994;49.752;6.094;2023-04-25T01:11:55;11.10;;;9.90;;
13847;SDS011;6994;49.752;6.094;2023-04-25T01:14:22;10.65;;;7.35;;
13847;SDS011;6994;49.752;6.094;2023-04-25T01:16:49;10.73;;;9.50;;
13847;SDS011;6994;49.752;6.094;2023-04-25T01:19:17;8.27;;;6.90;;
13847;SDS011;6994;49.752;6.094;2023-04-25T01:21:44;8.68;;;6.68;;
13847;SDS011;6994;49.752;6.094;2023-04-25T01:24:11;7.62;;;6.37;;
13847;SDS011;6994;49.752;6.094;2023-04-25T01:26:38;8.38;;;7.53;;
13847;SDS011;6994;49.752;6.094;2023-04-25T01:29:06;6.95;;;6.20;;
13847;SDS011;6994;49.752;6.094;2023-04-25T01:31:32;6.50;;;5.45;;
13847;SDS011;6994;49.752;6.094;2023-04-25T01:34:00;8.10;;;6.03;;
13847;SDS011;6994;49.752;6.094;2023-04-25T01:36:27;7.47;;;6.32;;
13847;SDS011;6994;49.752;6.094;2023-04-25T01:38:54;7.70;;;6.90;;
13847;SDS011;6994;49.752;6.094;2023-04-25T01:41:21;9.65;;;6.80;;
13847;SDS011;6994;49.752;6.094;2023-04-25T01:43:49;8.73;;;6.45;;
13847;SDS011;6994;49.752;6.094;2023-04-25T01:46:16;7.43;;;5.30;;
13847;SDS011;6994;49.752;6.094;2023-04-25T01:48:43;6.22;;;5.60;;
13847;SDS011;6994;49.752;6.094;2023-04-25T01:51:10;11.02;;;8.07;;
13847;SDS011;6994;49.752;6.094;2023-04-25T01:53:38;6.87;;;5.87;;
13847;SDS011;6994;49.752;6.094;2023-04-25T01:56:05;7.70;;;6.68;;
13847;SDS011;6994;49.752;6.094;2023-04-25T01:58:32;7.65;;;5.35;;
13847;SDS011;6994;49.752;6.094;2023-04-25T02:00:59;10.82;;;6.03;;
13847;SDS011;6994;49.752;6.094;2023-04-25T02:03:26;7.55;;;5.60;;
13847;SDS011;6994;49.752;6.094;2023-04-25T02:05:53;5.72;;;5.07;;
13847;SDS011;6994;49.752;6.094;2023-04-25T02:08:21;7.15;;;5.32;;
13847;SDS011;6994;49.752;6.094;2023-04-25T02:10:48;7.95;;;7.25;;
13847;SDS011;6994;49.752;6.094;2023-04-25T02:13:15;6.78;;;5.03;;
13847;SDS011;6994;49.752;6.094;2023-04-25T02:15:42;8.25;;;7.12;;
13847;SDS011;6994;49.752;6.094;2023-04-25T02:18:09;7.50;;;5.53;;
13847;SDS011;6994;49.752;6.094;2023-04-25T02:20:37;8.18;;;7.28;;
13847;SDS011;6994;49.752;6.094;2023-04-25T02:23:04;8.25;;;6.05;;
13847;SDS011;6994;49.752;6.094;2023-04-25T02:25:31;7.72;;;7.03;;
13847;SDS011;6994;49.752;6.094;2023-04-25T02:27:58;6.25;;;5.62;;
13847;SDS011;6994;49.752;6.094;2023-04-25T02:30:26;6.43;;;5.68;;
13847;SDS011;6994;49.752;6.094;2023-04-25T02:32:54;6.03;;;5.43;;
13847;SDS011;6994;49.752;6.094;2023-04-25T02:35:21;7.30;;;5.57;;
13847;SDS011;6994;49.752;6.094;2023-04-25T02:37:49;5.82;;;5.22;;
13847;SDS011;6994;49.752;6.094;2023-04-25T02:40:17;6.90;;;5.60;;
13847;SDS011;6994;49.752;6.094;2023-04-25T02:42:45;7.32;;;6.05;;
13847;SDS011;6994;49.752;6.094;2023-04-25T02:45:13;7.37;;;5.93;;
13847;SDS011;6994;49.752;6.094;2023-04-25T02:47:41;6.45;;;5.70;;
13847;SDS011;6994;49.752;6.094;2023-04-25T02:50:09;6.37;;;4.95;;
13847;SDS011;6994;49.752;6.094;2023-04-25T02:52:36;5.30;;;4.37;;
13847;SDS011;6994;49.752;6.094;2023-04-25T02:55:03;6.00;;;5.22;;
13847;SDS011;6994;49.752;6.094;2023-04-25T02:57:30;5.72;;;5.12;;
13847;SDS011;6994;49.752;6.094;2023-04-25T02:59:57;5.78;;;5.15;;
13847;SDS011;6994;49.752;6.094;2023-04-25T03:02:25;8.32;;;5.28;;
13847;SDS011;6994;49.752;6.094;2023-04-25T03:04:52;5.32;;;4.82;;
13847;SDS011;6994;49.752;6.094;2023-04-25T03:07:19;6.75;;;4.90;;
13847;SDS011;6994;49.752;6.094;2023-04-25T03:09:46;6.20;;;4.95;;
13847;SDS011;6994;49.752;6.094;2023-04-25T03:12:13;7.68;;;5.40;;
13847;SDS011;6994;49.752;6.094;2023-04-25T03:14:41;7.25;;;5.12;;
13847;SDS011;6994;49.752;6.094;2023-04-25T03:17:08;5.47;;;4.95;;
13847;SDS011;6994;49.752;6.094;2023-04-25T03:19:35;8.38;;;5.65;;
13847;SDS011;6994;49.752;6.094;2023-04-25T03:22:02;9.63;;;5.50;;
13847;SDS011;6994;49.752;6.094;2023-04-25T03:24:29;7.62;;;5.70;;
13847;SDS011;6994;49.752;6.094;2023-04-25T03:26:57;6.25;;;5.65;;
13847;SDS011;6994;49.752;6.094;2023-04-25T03:29:24;8.25;;;6.07;;
13847;SDS011;6994;49.752;6.094;2023-04-25T03:31:51;8.43;;;6.10;;
13847;SDS011;6994;49.752;6.094;2023-04-25T03:34:18;7.50;;;5.05;;
13847;SDS011;6994;49.752;6.094;2023-04-25T03:36:46;8.25;;;5.70;;
13847;SDS011;6994;49.752;6.094;2023-04-25T03:39:13;11.20;;;5.68;;
13847;SDS011;6994;49.752;6.094;2023-04-25T03:41:40;10.52;;;5.85;;
13847;SDS011;6994;49.752;6.094;2023-04-25T03:44:08;11.48;;;9.13;;
13847;SDS011;6994;49.752;6.094;2023-04-25T03:46:35;11.82;;;7.75;;
13847;SDS011;6994;49.752;6.094;2023-04-25T03:49:03;8.05;;;6.07;;
13847;SDS011;6994;49.752;6.094;2023-04-25T03:51:30;8.27;;;6.40;;
13847;SDS011;6994;49.752;6.094;2023-04-25T03:53:57;8.75;;;6.37;;
13847;SDS011;6994;49.752;6.094;2023-04-25T03:56:25;12.75;;;6.95;;
13847;SDS011;6994;49.752;6.094;2023-04-25T03:58:52;13.13;;;7.40;;
13847;SDS011;6994;49.752;6.094;2023-04-25T04:01:20;8.30;;;6.35;;
13847;SDS011;6994;49.752;6.094;2023-04-25T04:03:48;9.95;;;7.10;;
13847;SDS011;6994;49.752;6.094;2023-04-25T04:06:16;9.30;;;6.37;;
13847;SDS011;6994;49.752;6.094;2023-04-25T04:08:43;10.45;;;6.95;;
13847;SDS011;6994;49.752;6.094;2023-04-25T04:11:10;7.05;;;6.00;;
13847;SDS011;6994;49.752;6.094;2023-04-25T04:13:37;7.25;;;6.50;;
13847;SDS011;6994;49.752;6.094;2023-04-25T04:16:04;8.50;;;5.80;;
13847;SDS011;6994;49.752;6.094;2023-04-25T04:18:32;11.02;;;9.80;;
13847;SDS011;6994;49.752;6.094;2023-04-25T04:21:00;9.05;;;6.97;;
13847;SDS011;6994;49.752;6.094;2023-04-25T04:23:27;9.65;;;6.97;;
13847;SDS011;6994;49.752;6.094;2023-04-25T04:25:54;9.27;;;7.18;;
13847;SDS011;6994;49.752;6.094;2023-04-25T04:28:22;8.15;;;6.72;;
13847;SDS011;6994;49.752;6.094;2023-04-25T04:30:50;9.80;;;7.03;;
13847;SDS011;6994;49.752;6.094;2023-04-25T04:33:18;9.27;;;6.53;;
13847;SDS011;6994;49.752;6.094;2023-04-25T04:35:46;13.35;;;7.57;;
13847;SDS011;6994;49.752;6.094;2023-04-25T04:38:14;10.13;;;7.35;;
13847;SDS011;6994;49.752;6.094;2023-04-25T04:40:41;11.45;;;7.60;;
13847;SDS011;6994;49.752;6.094;2023-04-25T04:43:11;9.57;;;7.43;;
13847;SDS011;6994;49.752;6.094;2023-04-25T04:45:39;10.50;;;8.10;;
13847;SDS011;6994;49.752;6.094;2023-04-25T04:48:07;9.27;;;6.72;;
13847;SDS011;6994;49.752;6.094;2023-04-25T04:50:35;12.15;;;6.97;;
13847;SDS011;6994;49.752;6.094;2023-04-25T04:53:03;9.73;;;6.90;;
13847;SDS011;6994;49.752;6.094;2023-04-25T04:55:30;10.30;;;7.25;;
13847;SDS011;6994;49.752;6.094;2023-04-25T04:57:57;13.07;;;7.28;;
13847;SDS011;6994;49.752;6.094;2023-04-25T05:00:25;7.47;;;6.78;;
13847;SDS011;6994;49.752;6.094;2023-04-25T05:02:53;14.50;;;7.75;;
13847;SDS011;6994;49.752;6.094;2023-04-25T05:05:20;10.18;;;6.57;;
13847;SDS011;6994;49.752;6.094;2023-04-25T05:07:47;8.30;;;5.85;;
13847;SDS011;6994;49.752;6.094;2023-04-25T05:10:15;11.68;;;9.13;;
13847;SDS011;6994;49.752;6.094;2023-04-25T05:12:42;14.18;;;7.82;;
13847;SDS011;6994;49.752;6.094;2023-04-25T05:15:09;12.90;;;9.13;;
13847;SDS011;6994;49.752;6.094;2023-04-25T05:17:36;7.68;;;6.57;;
13847;SDS011;6994;49.752;6.094;2023-04-25T05:20:05;9.00;;;5.95;;
13847;SDS011;6994;49.752;6.094;2023-04-25T05:22:32;7.82;;;6.05;;
13847;SDS011;6994;49.752;6.094;2023-04-25T05:24:59;12.25;;;6.95;;
13847;SDS011;6994;49.752;6.094;2023-04-25T05:27:26;7.82;;;6.97;;
13847;SDS011;6994;49.752;6.094;2023-04-25T05:29:53;9.98;;;6.18;;
13847;SDS011;6994;49.752;6.094;2023-04-25T05:32:20;8.88;;;6.30;;
13847;SDS011;6994;49.752;6.094;2023-04-25T05:34:48;7.28;;;6.35;;
13847;SDS011;6994;49.752;6.094;2023-04-25T05:37:15;8.23;;;6.70;;
13847;SDS011;6994;49.752;6.094;2023-04-25T05:39:43;8.50;;;6.65;;
13847;SDS011;6994;49.752;6.094;2023-04-25T05:42:11;9.43;;;7.95;;
13847;SDS011;6994;49.752;6.094;2023-04-25T05:44:38;12.10;;;7.82;;
13847;SDS011;6994;49.752;6.094;2023-04-25T05:47:05;9.70;;;8.27;;
13847;SDS011;6994;49.752;6.094;2023-04-25T05:49:33;7.93;;;7.12;;
13847;SDS011;6994;49.752;6.094;2023-04-25T05:52:01;8.73;;;7.35;;
13847;SDS011;6994;49.752;6.094;2023-04-25T05:54:29;9.55;;;6.78;;
13847;SDS011;6994;49.752;6.094;2023-04-25T05:56:56;7.50;;;6.80;;
13847;SDS011;6994;49.752;6.094;2023-04-25T05:59:23;8.25;;;7.07;;
13847;SDS011;6994;49.752;6.094;2023-04-25T06:01:51;7.90;;;7.10;;
13847;SDS011;6994;49.752;6.094;2023-04-25T06:04:19;9.25;;;7.80;;
13847;SDS011;6994;49.752;6.094;2023-04-25T06:06:46;11.68;;;9.18;;
13847;SDS011;6994;49.752;6.094;2023-04-25T06:09:14;13.62;;;8.07;;
13847;SDS011;6994;49.752;6.094;2023-04-25T06:11:42;17.98;;;8.65;;
13847;SDS011;6994;49.752;6.094;2023-04-25T06:14:09;12.35;;;6.12;;
13847;SDS011;6994;49.752;6.094;2023-04-25T06:16:36;12.25;;;6.65;;
13847;SDS011;6994;49.752;6.094;2023-04-25T06:19:04;10.27;;;6.32;;
13847;SDS011;6994;49.752;6.094;2023-04-25T06:21:32;12.05;;;6.05;;
13847;SDS011;6994;49.752;6.094;2023-04-25T06:23:59;12.65;;;6.22;;
13847;SDS011;6994;49.752;6.094;2023-04-25T06:26:27;8.30;;;5.80;;
13847;SDS011;6994;49.752;6.094;2023-04-25T06:28:54;11.45;;;6.18;;
13847;SDS011;6994;49.752;6.094;2023-04-25T06:31:21;8.65;;;5.72;;
13847;SDS011;6994;49.752;6.094;2023-04-25T06:33:48;9.30;;;5.05;;
13847;SDS011;6994;49.752;6.094;2023-04-25T06:36:15;10.82;;;5.68;;
13847;SDS011;6994;49.752;6.094;2023-04-25T06:38:43;10.27;;;5.25;;
13847;SDS011;6994;49.752;6.094;2023-04-25T06:41:10;12.30;;;5.47;;
13847;SDS011;6994;49.752;6.094;2023-04-25T06:43:37;12.37;;;6.40;;
13847;SDS011;6994;49.752;6.094;2023-04-25T06:46:04;11.00;;;5.47;;
13847;SDS011;6994;49.752;6.094;2023-04-25T06:48:31;10.00;;;6.00;;
13847;SDS011;6994;49.752;6.094;2023-04-25T06:50:59;11.80;;;5.90;;
13847;SDS011;6994;49.752;6.094;2023-04-25T06:53:26;13.23;;;6.25;;
13847;SDS011;6994;49.752;6.094;2023-04-25T06:55:53;8.50;;;4.37;;
13847;SDS011;6994;49.752;6.094;2023-04-25T06:58:20;11.95;;;5.45;;
13847;SDS011;6994;49.752;6.094;2023-04-25T07:00:47;9.23;;;5.07;;
13847;SDS011;6994;49.752;6.094;2023-04-25T07:03:15;6.22;;;4.70;;
13847;SDS011;6994;49.752;6.094;2023-04-25T07:05:43;10.75;;;5.03;;
13847;SDS011;6994;49.752;6.094;2023-04-25T07:08:10;6.25;;;4.62;;
13847;SDS011;6994;49.752;6.094;2023-04-25T07:10:37;12.70;;;5.30;;
13847;SDS011;6994;49.752;6.094;2023-04-25T07:13:05;13.43;;;4.87;;
13847;SDS011;6994;49.752;6.094;2023-04-25T07:15:33;8.52;;;4.93;;
13847;SDS011;6994;49.752;6.094;2023-04-25T07:18:01;8.52;;;4.80;;
13847;SDS011;6994;49.752;6.094;2023-04-25T07:20:29;9.77;;;5.37;;
13847;SDS011;6994;49.752;6.094;2023-04-25T07:22:57;8.57;;;5.75;;
13847;SDS011;6994;49.752;6.094;2023-04-25T07:25:25;9.95;;;5.28;;
13847;SDS011;6994;49.752;6.094;2023-04-25T07:27:53;6.07;;;5.25;;
13847;SDS011;6994;49.752;6.094;2023-04-25T07:30:20;9.18;;;5.90;;
13847;SDS011;6994;49.752;6.094;2023-04-25T07:32:47;8.00;;;5.00;;
13847;SDS011;6994;49.752;6.094;2023-04-25T07:35:15;12.52;;;6.68;;
13847;SDS011;6994;49.752;6.094;2023-04-25T07:37:43;8.15;;;5.40;;
13847;SDS011;6994;49.752;6.094;2023-04-25T07:40:11;9.85;;;5.30;;
13847;SDS011;6994;49.752;6.094;2023-04-25T07:42:38;6.75;;;4.75;;
13847;SDS011;6994;49.752;6.094;2023-04-25T07:45:06;11.18;;;4.68;;
13847;SDS011;6994;49.752;6.094;2023-04-25T07:47:33;11.05;;;5.30;;
13847;SDS011;6994;49.752;6.094;2023-04-25T07:50:00;11.67;;;6.03;;
13847;SDS011;6994;49.752;6.094;2023-04-25T07:52:30;12.32;;;6.15;;
13847;SDS011;6994;49.752;6.094;2023-04-25T07:54:57;9.90;;;5.80;;
13847;SDS011;6994;49.752;6.094;2023-04-25T07:57:25;13.48;;;6.37;;
13847;SDS011;6994;49.752;6.094;2023-04-25T07:59:53;10.05;;;5.32;;
13847;SDS011;6994;49.752;6.094;2023-04-25T08:02:21;12.57;;;6.12;;
13847;SDS011;6994;49.752;6.094;2023-04-25T08:04:49;10.90;;;6.00;;
13847;SDS011;6994;49.752;6.094;2023-04-25T08:07:17;12.13;;;5.80;;
13847;SDS011;6994;49.752;6.094;2023-04-25T08:09:45;16.80;;;6.00;;
13847;SDS011;6994;49.752;6.094;2023-04-25T08:12:13;11.12;;;4.87;;
13847;SDS011;6994;49.752;6.094;2023-04-25T08:14:40;11.15;;;5.70;;
13847;SDS011;6994;49.752;6.094;2023-04-25T08:17:07;9.43;;;5.10;;
13847;SDS011;6994;49.752;6.094;2023-04-25T08:19:35;10.85;;;5.25;;
13847;SDS011;6994;49.752;6.094;2023-04-25T08:22:02;12.10;;;5.10;;
13847;SDS011;6994;49.752;6.094;2023-04-25T08:24:29;13.55;;;6.65;;
13847;SDS011;6994;49.752;6.094;2023-04-25T08:26:56;6.43;;;5.07;;
13847;SDS011;6994;49.752;6.094;2023-04-25T08:29:23;6.30;;;4.47;;
13847;SDS011;6994;49.752;6.094;2023-04-25T08:31:51;11.25;;;5.35;;
13847;SDS011;6994;49.752;6.094;2023-04-25T08:34:18;9.90;;;4.82;;
13847;SDS011;6994;49.752;6.094;2023-04-25T08:36:46;10.27;;;4.90;;
13847;SDS011;6994;49.752;6.094;2023-04-25T08:39:14;9.10;;;4.75;;
13847;SDS011;6994;49.752;6.094;2023-04-25T08:41:42;8.93;;;5.03;;
13847;SDS011;6994;49.752;6.094;2023-04-25T08:44:12;8.30;;;4.93;;
13847;SDS011;6994;49.752;6.094;2023-04-25T08:46:39;5.47;;;4.10;;
13847;SDS011;6994;49.752;6.094;2023-04-25T08:49:06;7.37;;;4.97;;
13847;SDS011;6994;49.752;6.094;2023-04-25T08:51:34;6.72;;;4.47;;
13847;SDS011;6994;49.752;6.094;2023-04-25T08:54:12;10.55;;;4.95;;
13847;SDS011;6994;49.752;6.094;2023-04-25T08:56:35;7.87;;;4.43;;
13847;SDS011;6994;49.752;6.094;2023-04-25T08:59:02;9.70;;;4.32;;
13847;SDS011;6994;49.752;6.094;2023-04-25T09:01:29;8.93;;;4.62;;
13847;SDS011;6994;49.752;6.094;2023-04-25T09:03:57;8.85;;;5.87;;
13847;SDS011;6994;49.752;6.094;2023-04-25T09:06:25;7.10;;;3.97;;
13847;SDS011;6994;49.752;6.094;2023-04-25T09:08:53;5.75;;;4.03;;
13847;SDS011;6994;49.752;6.094;2023-04-25T09:11:21;9.77;;;4.40;;
13847;SDS011;6994;49.752;6.094;2023-04-25T09:13:49;7.97;;;3.95;;
13847;SDS011;6994;49.752;6.094;2023-04-25T09:16:17;7.68;;;3.92;;
13847;SDS011;6994;49.752;6.094;2023-04-25T09:18:45;6.05;;;4.60;;
13847;SDS011;6994;49.752;6.094;2023-04-25T09:21:12;8.93;;;3.95;;
13847;SDS011;6994;49.752;6.094;2023-04-25T09:23:40;4.68;;;3.42;;
13847;SDS011;6994;49.752;6.094;2023-04-25T09:26:07;4.93;;;3.00;;
13847;SDS011;6994;49.752;6.094;2023-04-25T09:28:35;2.62;;;2.40;;
13847;SDS011;6994;49.752;6.094;2023-04-25T09:31:05;5.87;;;2.47;;
13847;SDS011;6994;49.752;6.094;2023-04-25T09:33:33;3.42;;;2.50;;
13847;SDS011;6994;49.752;6.094;2023-04-25T09:36:03;5.90;;;2.17;;
13847;SDS011;6994;49.752;6.094;2023-04-25T09:38:39;5.32;;;2.75;;
13847;SDS011;6994;49.752;6.094;2023-04-25T09:40:57;7.18;;;3.05;;
13847;SDS011;6994;49.752;6.094;2023-04-25T09:43:24;3.72;;;2.72;;
13847;SDS011;6994;49.752;6.094;2023-04-25T09:45:53;3.47;;;2.90;;
13847;SDS011;6994;49.752;6.094;2023-04-25T09:48:19;8.45;;;2.92;;
13847;SDS011;6994;49.752;6.094;2023-04-25T09:51:05;3.87;;;2.55;;
13847;SDS011;6994;49.752;6.094;2023-04-25T09:53:35;4.15;;;2.35;;
13847;SDS011;6994;49.752;6.094;2023-04-25T09:56:05;7.30;;;2.78;;
13847;SDS011;6994;49.752;6.094;2023-04-25T09:58:32;8.02;;;3.10;;
13847;SDS011;6994;49.752;6.094;2023-04-25T10:01:00;4.70;;;3.65;;
13847;SDS011;6994;49.752;6.094;2023-04-25T10:03:29;9.40;;;2.20;;
13847;SDS011;6994;49.752;6.094;2023-04-25T10:05:58;3.67;;;2.28;;
13847;SDS011;6994;49.752;6.094;2023-04-25T10:08:24;7.00;;;3.00;;
13847;SDS011;6994;49.752;6.094;2023-04-25T10:10:52;8.18;;;4.18;;
13847;SDS011;6994;49.752;6.094;2023-04-25T10:13:20;4.07;;;2.33;;
13847;SDS011;6994;49.752;6.094;2023-04-25T10:15:48;5.47;;;2.70;;
13847;SDS011;6994;49.752;6.094;2023-04-25T10:18:16;2.92;;;2.72;;
13847;SDS011;6994;49.752;6.094;2023-04-25T10:20:44;5.18;;;2.42;;
13847;SDS011;6994;49.752;6.094;2023-04-25T10:23:15;3.40;;;2.40;;
13847;SDS011;6994;49.752;6.094;2023-04-25T10:25:42;5.22;;;2.53;;
13847;SDS011;6994;49.752;6.094;2023-04-25T10:28:09;4.05;;;2.33;;
13847;SDS011;6994;49.752;6.094;2023-04-25T10:30:36;7.47;;;2.87;;
13847;SDS011;6994;49.752;6.094;2023-04-25T10:33:12;4.35;;;3.10;;
13847;SDS011;6994;49.752;6.094;2023-04-25T10:35:31;4.93;;;2.47;;
13847;SDS011;6994;49.752;6.094;2023-04-25T10:37:58;4.43;;;2.37;;
13847;SDS011;6994;49.752;6.094;2023-04-25T10:40:32;6.20;;;2.50;;
13847;SDS011;6994;49.752;6.094;2023-04-25T10:46:01;5.05;;;2.25;;
13847;SDS011;6994;49.752;6.094;2023-04-25T10:48:29;2.53;;;1.80;;
13847;SDS011;6994;49.752;6.094;2023-04-25T10:51:43;4.70;;;2.50;;
13847;SDS011;6994;49.752;6.094;2023-04-25T10:53:36;5.35;;;2.30;;
13847;SDS011;6994;49.752;6.094;2023-04-25T10:56:10;4.93;;;2.70;;
13847;SDS011;6994;49.752;6.094;2023-04-25T10:58:46;4.03;;;2.05;;
13847;SDS011;6994;49.752;6.094;2023-04-25T11:01:20;8.70;;;2.30;;
13847;SDS011;6994;49.752;6.094;2023-04-25T11:03:46;5.60;;;3.15;;
13847;SDS011;6994;49.752;6.094;2023-04-25T11:06:23;5.65;;;2.33;;
13847;SDS011;6994;49.752;6.094;2023-04-25T11:08:50;4.12;;;2.60;;
13847;SDS011;6994;49.752;6.094;2023-04-25T11:11:17;3.35;;;2.20;;
13847;SDS011;6994;49.752;6.094;2023-04-25T11:13:47;6.80;;;3.08;;
13847;SDS011;6994;49.752;6.094;2023-04-25T11:16:11;5.78;;;2.78;;
13847;SDS011;6994;49.752;6.094;2023-04-25T11:18:43;5.62;;;2.75;;
13847;SDS011;6994;49.752;6.094;2023-04-25T11:21:10;3.80;;;2.55;;
13847;SDS011;6994;49.752;6.094;2023-04-25T11:23:37;5.90;;;2.17;;
13847;SDS011;6994;49.752;6.094;2023-04-25T11:26:04;5.70;;;2.75;;
13847;SDS011;6994;49.752;6.094;2023-04-25T11:28:31;8.63;;;3.20;;
13847;SDS011;6994;49.752;6.094;2023-04-25T11:30:58;3.90;;;2.80;;
13847;SDS011;6994;49.752;6.094;2023-04-25T11:33:26;8.05;;;3.20;;
13847;SDS011;6994;49.752;6.094;2023-04-25T11:35:56;8.10;;;3.05;;
13847;SDS011;6994;49.752;6.094;2023-04-25T11:38:23;5.95;;;3.05;;
13847;SDS011;6994;49.752;6.094;2023-04-25T11:40:53;8.60;;;3.40;;
13847;SDS011;6994;49.752;6.094;2023-04-25T11:43:20;7.72;;;2.97;;
13847;SDS011;6994;49.752;6.094;2023-04-25T11:45:51;3.83;;;2.20;;
13847;SDS011;6994;49.752;6.094;2023-04-25T11:48:18;5.37;;;2.37;;
13847;SDS011;6994;49.752;6.094;2023-04-25T11:50:45;5.07;;;2.22;;
13847;SDS011;6994;49.752;6.094;2023-04-25T11:53:12;7.45;;;2.75;;
13847;SDS011;6994;49.752;6.094;2023-04-25T11:55:39;3.62;;;2.22;;
13847;SDS011;6994;49.752;6.094;2023-04-25T11:58:07;4.03;;;2.05;;
13847;SDS011;6994;49.752;6.094;2023-04-25T12:00:35;5.03;;;2.78;;
13847;SDS011;6994;49.752;6.094;2023-04-25T12:03:02;6.22;;;2.45;;
13847;SDS011;6994;49.752;6.094;2023-04-25T12:05:30;6.03;;;2.25;;
13847;SDS011;6994;49.752;6.094;2023-04-25T12:07:56;4.70;;;2.58;;
13847;SDS011;6994;49.752;6.094;2023-04-25T12:10:24;5.57;;;2.67;;
13847;SDS011;6994;49.752;6.094;2023-04-25T12:12:51;5.68;;;2.30;;
13847;SDS011;6994;49.752;6.094;2023-04-25T12:15:23;6.87;;;2.62;;
13847;SDS011;6994;49.752;6.094;2023-04-25T12:17:49;4.15;;;2.37;;
13847;SDS011;6994;49.752;6.094;2023-04-25T12:20:16;6.47;;;2.62;;
13847;SDS011;6994;49.752;6.094;2023-04-25T12:22:44;7.78;;;2.37;;
13847;SDS011;6994;49.752;6.094;2023-04-25T12:25:13;4.90;;;2.20;;
13847;SDS011;6994;49.752;6.094;2023-04-25T12:28:17;5.07;;;2.65;;
13847;SDS011;6994;49.752;6.094;2023-04-25T12:30:53;7.70;;;3.40;;
13847;SDS011;6994;49.752;6.094;2023-04-25T12:33:22;4.68;;;2.60;;
13847;SDS011;6994;49.752;6.094;2023-04-25T12:35:49;5.68;;;2.28;;
13847;SDS011;6994;49.752;6.094;2023-04-25T12:38:26;3.65;;;1.83;;
13847;SDS011;6994;49.752;6.094;2023-04-25T12:40:55;5.85;;;1.70;;
13847;SDS011;6994;49.752;6.094;2023-04-25T12:43:22;2.80;;;1.50;;
13847;SDS011;6994;49.752;6.094;2023-04-25T12:45:54;9.98;;;2.10;;
13847;SDS011;6994;49.752;6.094;2023-04-25T12:48:17;2.22;;;1.87;;
13847;SDS011;6994;49.752;6.094;2023-04-25T12:50:45;2.55;;;1.35;;
13847;SDS011;6994;49.752;6.094;2023-04-25T12:53:12;2.50;;;2.00;;
13847;SDS011;6994;49.752;6.094;2023-04-25T12:55:39;2.62;;;1.48;;
13847;SDS011;6994;49.752;6.094;2023-04-25T12:58:06;4.57;;;2.37;;
13847;SDS011;6994;49.752;6.094;2023-04-25T13:00:34;2.60;;;1.60;;
13847;SDS011;6994;49.752;6.094;2023-04-25T13:03:01;5.78;;;2.33;;
13847;SDS011;6994;49.752;6.094;2023-04-25T13:05:28;5.32;;;2.08;;
13847;SDS011;6994;49.752;6.094;2023-04-25T13:07:55;4.05;;;1.87;;
13847;SDS011;6994;49.752;6.094;2023-04-25T13:10:22;2.60;;;1.77;;
13847;SDS011;6994;49.752;6.094;2023-04-25T13:12:50;10.65;;;2.50;;
13847;SDS011;6994;49.752;6.094;2023-04-25T13:15:17;6.43;;;2.00;;
13847;SDS011;6994;49.752;6.094;2023-04-25T13:17:44;4.10;;;1.62;;
13847;SDS011;6994;49.752;6.094;2023-04-25T13:20:11;7.12;;;2.85;;
13847;SDS011;6994;49.752;6.094;2023-04-25T13:22:38;5.03;;;1.75;;
13847;SDS011;6994;49.752;6.094;2023-04-25T13:25:06;5.05;;;2.00;;
13847;SDS011;6994;49.752;6.094;2023-04-25T13:27:33;2.47;;;1.52;;
13847;SDS011;6994;49.752;6.094;2023-04-25T13:30:00;3.08;;;1.50;;
13847;SDS011;6994;49.752;6.094;2023-04-25T13:32:27;3.87;;;2.00;;
13847;SDS011;6994;49.752;6.094;2023-04-25T13:34:54;3.42;;;1.60;;
13847;SDS011;6994;49.752;6.094;2023-04-25T13:37:22;4.28;;;2.03;;
13847;SDS011;6994;49.752;6.094;2023-04-25T13:39:50;3.28;;;1.95;;
13847;SDS011;6994;49.752;6.094;2023-04-25T13:42:17;3.45;;;2.10;;
13847;SDS011;6994;49.752;6.094;2023-04-25T13:44:44;8.82;;;2.40;;
13847;SDS011;6994;49.752;6.094;2023-04-25T13:47:11;4.07;;;2.12;;
13847;SDS011;6994;49.752;6.094;2023-04-25T13:49:38;4.70;;;2.28;;
13847;SDS011;6994;49.752;6.094;2023-04-25T13:52:06;4.95;;;1.42;;
13847;SDS011;6994;49.752;6.094;2023-04-25T13:54:33;4.00;;;1.80;;
13847;SDS011;6994;49.752;6.094;2023-04-25T13:57:00;3.05;;;1.52;;
13847;SDS011;6994;49.752;6.094;2023-04-25T13:59:27;3.33;;;1.67;;
13847;SDS011;6994;49.752;6.094;2023-04-25T14:01:55;4.22;;;1.73;;
13847;SDS011;6994;49.752;6.094;2023-04-25T14:04:23;3.85;;;1.33;;
13847;SDS011;6994;49.752;6.094;2023-04-25T14:06:51;4.85;;;2.20;;
13847;SDS011;6994;49.752;6.094;2023-04-25T14:09:19;3.03;;;1.73;;
13847;SDS011;6994;49.752;6.094;2023-04-25T14:11:46;3.35;;;1.65;;
13847;SDS011;6994;49.752;6.094;2023-04-25T14:14:13;3.10;;;1.42;;
13847;SDS011;6994;49.752;6.094;2023-04-25T14:16:40;4.40;;;2.00;;
13847;SDS011;6994;49.752;6.094;2023-04-25T14:19:07;2.92;;;1.40;;
13847;SDS011;6994;49.752;6.094;2023-04-25T14:21:34;3.60;;;1.45;;
13847;SDS011;6994;49.752;6.094;2023-04-25T14:24:02;3.12;;;1.52;;
13847;SDS011;6994;49.752;6.094;2023-04-25T14:26:30;1.33;;;1.10;;
13847;SDS011;6994;49.752;6.094;2023-04-25T14:28:58;5.95;;;1.55;;
13847;SDS011;6994;49.752;6.094;2023-04-25T14:31:25;4.15;;;1.80;;
13847;SDS011;6994;49.752;6.094;2023-04-25T14:33:52;5.25;;;1.58;;
13847;SDS011;6994;49.752;6.094;2023-04-25T14:36:19;4.65;;;1.37;;
13847;SDS011;6994;49.752;6.094;2023-04-25T14:38:46;4.70;;;1.95;;
13847;SDS011;6994;49.752;6.094;2023-04-25T14:41:14;4.75;;;2.05;;
13847;SDS011;6994;49.752;6.094;2023-04-25T14:43:41;2.80;;;1.60;;
13847;SDS011;6994;49.752;6.094;2023-04-25T14:46:08;2.03;;;1.33;;
13847;SDS011;6994;49.752;6.094;2023-04-25T14:48:36;5.18;;;1.80;;
13847;SDS011;6994;49.752;6.094;2023-04-25T14:51:04;3.67;;;1.83;;
13847;SDS011;6994;49.752;6.094;2023-04-25T14:53:31;5.07;;;2.28;;
13847;SDS011;6994;49.752;6.094;2023-04-25T14:55:58;5.45;;;1.67;;
13847;SDS011;6994;49.752;6.094;2023-04-25T14:58:26;3.87;;;1.65;;
13847;SDS011;6994;49.752;6.094;2023-04-25T15:00:53;5.50;;;1.73;;
13847;SDS011;6994;49.752;6.094;2023-04-25T15:03:20;6.10;;;1.37;;